Terminal Aerodrome Forecast
Issued by NWS

Home | Current Version | Previous Version | Text Only | Print | Product List | Glossary On
Versions: 1 2 3 4 5 6 7 8 9 10 11 12 13 14 15 16 17 18
000
FTUS46 KSEW 261100
TAFPAE
TAF
KPAE 261135Z 2612/2712 20019G26KT P6SM OVC009
      TEMPO 2616/2620 SCT009 BKN022 OVC040
     FM262000 18014G22KT P6SM BKN030 OVC150
     FM270300 18020G30KT P6SM -RA OVC012=

USA.gov is the U.S. government's official web portal to all federal, state and local government web resources and services.